createdAt,value
2018-08-10T00:00:22.344Z,20.50
2018-08-10T00:05:26.184Z,20.40
2018-08-10T00:10:30.292Z,20.40
2018-08-10T00:15:34.219Z,20.40
2018-08-10T00:20:38.090Z,20.40
2018-08-10T00:25:41.927Z,20.40
2018-08-10T00:30:45.812Z,20.40
2018-08-10T00:35:49.704Z,20.40
2018-08-10T00:40:53.456Z,20.40
2018-08-10T00:45:57.360Z,20.30
2018-08-10T00:51:01.072Z,20.30
2018-08-10T00:56:04.866Z,20.30
2018-08-10T01:01:08.721Z,20.20
2018-08-10T01:06:12.743Z,20.20
2018-08-10T01:11:16.621Z,20.20
2018-08-10T01:16:20.460Z,20.10
2018-08-10T01:21:24.883Z,20.20
2018-08-10T01:26:28.707Z,20.20
2018-08-10T01:31:32.860Z,20.10
2018-08-10T01:36:36.808Z,20.10
2018-08-10T01:41:40.711Z,20.10
2018-08-10T01:46:44.812Z,20.10
2018-08-10T01:51:48.579Z,20.10
2018-08-10T01:56:52.299Z,20.10
2018-08-10T02:01:56.628Z,20.00
2018-08-10T02:07:00.570Z,20.00
2018-08-10T02:12:04.932Z,20.00
2018-08-10T02:17:08.610Z,19.90
2018-08-10T02:22:12.332Z,19.90
2018-08-10T02:27:16.324Z,19.90
2018-08-10T02:32:20.047Z,19.80
2018-08-10T02:37:23.830Z,19.80
2018-08-10T02:42:27.700Z,19.80
2018-08-10T02:47:33.801Z,19.70
2018-08-10T02:52:37.538Z,19.70
2018-08-10T02:57:41.967Z,19.70
2018-08-10T03:02:46.206Z,19.60
2018-08-10T03:07:50.276Z,19.60
2018-08-10T03:12:54.170Z,19.60
2018-08-10T03:17:58.113Z,19.60
2018-08-10T03:23:04.427Z,19.60
2018-08-10T03:28:08.365Z,19.60
2018-08-10T03:33:12.141Z,19.50
2018-08-10T03:49:17.931Z,19.50
2018-08-10T03:54:21.915Z,19.50
2018-08-10T03:59:25.648Z,19.50
2018-08-10T04:04:29.502Z,19.40
2018-08-10T04:15:18.167Z,19.40
2018-08-10T04:20:21.912Z,19.40
2018-08-10T04:25:25.663Z,19.40
2018-08-10T04:30:29.841Z,19.40
2018-08-10T04:35:33.977Z,19.40
2018-08-10T04:40:37.713Z,19.40
2018-08-10T04:45:41.599Z,19.40
2018-08-10T04:50:45.764Z,19.30
2018-08-10T04:55:49.800Z,19.30
2018-08-10T05:00:53.606Z,19.20
2018-08-10T05:05:57.693Z,19.20
2018-08-10T05:11:01.522Z,19.20
2018-08-10T05:16:05.482Z,19.20
2018-08-10T05:21:09.458Z,19.20
2018-08-10T05:26:13.469Z,19.10
2018-08-10T05:31:17.548Z,19.10
2018-08-10T05:36:21.399Z,19.10
2018-08-10T05:41:25.307Z,19.10
2018-08-10T05:46:29.330Z,19.10
2018-08-10T05:51:33.126Z,19.20
2018-08-10T05:56:37.055Z,19.20
2018-08-10T06:01:41.142Z,19.20
2018-08-10T06:06:45.276Z,19.30
2018-08-10T06:11:49.200Z,19.50
2018-08-10T06:16:53.531Z,19.50
2018-08-10T06:21:57.464Z,19.40
2018-08-10T06:27:06.727Z,19.40
2018-08-10T06:32:10.716Z,19.40
2018-08-10T06:37:14.679Z,19.40
2018-08-10T06:42:18.667Z,19.40
2018-08-10T06:47:22.637Z,19.50
2018-08-10T06:52:26.744Z,19.60
2018-08-10T06:57:30.665Z,19.60
2018-08-10T07:02:34.521Z,19.60
2018-08-10T07:07:38.907Z,19.60
2018-08-10T07:12:42.812Z,19.60
2018-08-10T07:18:04.608Z,19.60
2018-08-10T07:23:08.503Z,19.60
2018-08-10T07:28:30.682Z,19.70
2018-08-10T07:33:34.460Z,19.80
2018-08-10T07:38:38.571Z,19.90
2018-08-10T07:43:43.483Z,20.10
2018-08-10T07:48:50.151Z,20.30
2018-08-10T07:53:54.219Z,20.50
2018-08-10T07:58:58.061Z,20.60
2018-08-10T08:04:01.831Z,20.60
2018-08-10T08:09:08.639Z,20.70
2018-08-10T08:14:12.399Z,20.80
2018-08-10T08:19:17.486Z,21.00
2018-08-10T08:24:22.165Z,21.10
2018-08-10T08:29:28.468Z,21.30
2018-08-10T08:34:32.683Z,21.30
2018-08-10T08:40:17.848Z,21.30
2018-08-10T08:46:24.262Z,21.40
2018-08-10T08:51:28.215Z,21.50
2018-08-10T08:56:42.500Z,21.40
2018-08-10T09:01:46.343Z,21.40
2018-08-10T09:06:50.604Z,21.40
2018-08-10T09:11:54.368Z,21.50
2018-08-10T09:16:58.244Z,21.50
2018-08-10T09:22:01.976Z,21.60
2018-08-10T09:27:05.924Z,21.60
2018-08-10T09:32:09.817Z,21.80
2018-08-10T09:37:13.582Z,21.90
2018-08-10T09:42:17.611Z,22.10
2018-08-10T09:47:32.895Z,22.00
2018-08-10T09:52:36.982Z,21.90
2018-08-10T09:57:48.532Z,22.10
2018-08-10T10:02:53.301Z,22.30
2018-08-10T10:19:10.862Z,22.90
2018-08-10T10:24:14.854Z,23.20
2018-08-10T10:29:18.825Z,23.20
2018-08-10T10:34:23.274Z,23.10
2018-08-10T10:50:23.543Z,23.60
2018-08-10T10:55:27.359Z,23.80
2018-08-10T11:00:31.057Z,23.90
2018-08-10T11:05:34.986Z,24.10
2018-08-10T11:10:39.538Z,24.30
2018-08-10T11:15:44.047Z,24.20
2018-08-10T11:20:47.829Z,24.10
2018-08-10T11:25:51.664Z,23.90
2018-08-10T11:30:55.775Z,24.00
2018-08-10T11:35:59.634Z,24.10
2018-08-10T11:41:04.108Z,24.40
2018-08-10T11:46:08.337Z,24.60
2018-08-10T11:51:12.781Z,24.90
2018-08-10T11:56:16.660Z,24.90
2018-08-10T12:01:20.754Z,25.10
2018-08-10T12:06:24.755Z,25.00
2018-08-10T12:11:28.604Z,25.00
2018-08-10T12:16:32.703Z,25.10
2018-08-10T12:21:36.719Z,25.30
2018-08-10T12:26:40.723Z,25.40
2018-08-10T12:31:45.504Z,25.60
2018-08-10T12:36:49.436Z,25.70
2018-08-10T12:41:58.162Z,25.80
2018-08-10T12:47:02.018Z,25.90
2018-08-10T12:52:06.993Z,26.10
2018-08-10T12:57:12.040Z,26.10
2018-08-10T13:02:17.348Z,26.00
2018-08-10T13:07:21.716Z,25.70
2018-08-10T13:12:29.371Z,25.70
2018-08-10T13:17:33.223Z,25.80
2018-08-10T13:22:37.872Z,25.80
2018-08-10T13:27:41.755Z,25.90
2018-08-10T13:32:47.548Z,26.00
2018-08-10T13:38:02.892Z,26.30
2018-08-10T13:43:07.304Z,26.40
2018-08-10T13:48:10.984Z,26.60
2018-08-10T13:53:14.822Z,26.80
2018-08-10T13:58:18.931Z,26.90
2018-08-10T14:03:22.600Z,26.90
2018-08-10T14:19:35.466Z,27.10
2018-08-10T14:24:39.822Z,26.90
2018-08-10T14:29:43.527Z,26.70
2018-08-10T14:34:47.531Z,26.80
2018-08-10T14:39:51.615Z,26.80
2018-08-10T14:44:56.697Z,26.70
2018-08-10T14:50:01.015Z,26.90
2018-08-10T14:55:06.133Z,27.10
2018-08-10T15:00:17.052Z,27.10
2018-08-10T15:05:21.955Z,27.20
2018-08-10T15:15:47.085Z,27.40
2018-08-10T15:26:09.455Z,27.10
2018-08-10T15:41:36.815Z,26.70
2018-08-10T15:46:40.656Z,26.90
2018-08-10T15:51:45.665Z,26.90
2018-08-10T15:56:49.559Z,26.90
2018-08-10T16:01:53.440Z,26.90
2018-08-10T16:06:57.265Z,26.90
2018-08-10T16:12:01.280Z,26.80
2018-08-10T16:17:05.180Z,26.80
2018-08-10T16:22:09.171Z,26.80
2018-08-10T16:27:13.133Z,26.90
2018-08-10T16:32:17.151Z,26.90
2018-08-10T16:37:21.195Z,27.00
2018-08-10T16:42:25.012Z,26.90
2018-08-10T16:47:29.011Z,26.80
2018-08-10T16:52:33.139Z,26.70
2018-08-10T17:03:07.324Z,26.50
2018-08-10T17:08:11.280Z,26.40
2018-08-10T17:13:15.088Z,26.50
2018-08-10T17:18:19.235Z,26.50
2018-08-10T17:23:23.378Z,26.40
2018-08-10T17:34:02.717Z,26.20
2018-08-10T17:39:10.232Z,26.10
2018-08-10T17:44:14.109Z,26.00
2018-08-10T17:49:36.120Z,25.90
2018-08-10T17:54:40.235Z,25.80
2018-08-10T17:59:44.328Z,25.70
2018-08-10T18:04:48.169Z,25.60
2018-08-10T18:09:52.103Z,25.50
2018-08-10T18:14:56.216Z,25.40
2018-08-10T18:19:59.946Z,25.30
2018-08-10T18:25:03.795Z,25.30
2018-08-10T18:30:10.295Z,25.10
2018-08-10T18:35:14.080Z,25.00
2018-08-10T18:40:17.956Z,25.00
2018-08-10T18:45:22.160Z,24.90
2018-08-10T18:50:25.947Z,24.80
2018-08-10T18:55:29.706Z,24.70
2018-08-10T19:00:33.908Z,24.60
2018-08-10T19:05:37.710Z,24.60
2018-08-10T19:10:41.720Z,24.50
2018-08-10T19:15:45.945Z,24.40
2018-08-10T19:20:49.943Z,24.30
2018-08-10T19:25:53.784Z,24.20
2018-08-10T19:30:58.190Z,24.20
2018-08-10T19:36:02.033Z,24.10
2018-08-10T19:41:06.258Z,24.00
2018-08-10T19:46:10.173Z,24.00
2018-08-10T19:51:15.195Z,23.90
2018-08-10T19:56:20.210Z,23.90
2018-08-10T20:01:24.184Z,23.80
2018-08-10T20:06:28.134Z,23.70
2018-08-10T20:11:32.042Z,23.70
2018-08-10T20:16:35.997Z,23.60
2018-08-10T20:21:39.985Z,23.50
2018-08-10T20:26:43.953Z,23.50
2018-08-10T20:31:47.821Z,23.40
2018-08-10T20:36:51.973Z,23.40
2018-08-10T20:41:55.903Z,23.30
2018-08-10T20:47:07.104Z,23.20
2018-08-10T20:52:10.986Z,23.20
2018-08-10T21:03:05.450Z,23.00
2018-08-10T21:08:11.840Z,22.80
2018-08-10T21:13:16.009Z,22.70
2018-08-10T21:18:19.954Z,22.70
2018-08-10T21:23:24.089Z,22.60
2018-08-10T21:28:27.881Z,22.50
2018-08-10T21:33:31.813Z,22.50
2018-08-10T21:38:35.551Z,22.50
2018-08-10T21:43:40.711Z,22.40
2018-08-10T21:48:44.536Z,22.40
2018-08-10T21:53:48.470Z,22.40
2018-08-10T21:58:52.431Z,22.40
2018-08-10T22:03:56.678Z,22.30
2018-08-10T22:09:01.751Z,22.30
2018-08-10T22:14:10.759Z,22.30
2018-08-10T22:24:59.280Z,22.30
2018-08-10T22:30:03.356Z,22.30
2018-08-10T22:35:07.027Z,22.30
2018-08-10T22:40:10.981Z,22.30
2018-08-10T22:45:15.381Z,22.30
2018-08-10T22:50:19.183Z,22.30
2018-08-10T22:55:23.208Z,22.30
2018-08-10T23:00:27.422Z,22.30
2018-08-10T23:05:31.298Z,22.30
2018-08-10T23:10:35.511Z,22.30
2018-08-10T23:15:39.559Z,22.20
2018-08-10T23:20:43.386Z,22.20
2018-08-10T23:25:47.369Z,22.20
2018-08-10T23:30:51.251Z,22.10
2018-08-10T23:35:55.209Z,22.10
2018-08-10T23:40:58.913Z,22.10
2018-08-10T23:46:02.813Z,22.00
2018-08-10T23:51:06.792Z,22.00
2018-08-10T23:56:10.614Z,22.00
